createdAt,value
2024-03-25T00:01:12.818Z,5.23
2024-03-25T00:02:36.768Z,5.19
2024-03-25T00:03:59.367Z,5.09
2024-03-25T00:05:25.984Z,5.12
2024-03-25T00:06:47.206Z,5.09
2024-03-25T00:08:11.236Z,5.04
2024-03-25T00:09:36.885Z,4.96
2024-03-25T00:11:02.539Z,5.03
2024-03-25T00:12:23.104Z,5.13
2024-03-25T00:13:45.315Z,4.99
2024-03-25T00:15:10.995Z,5.00
2024-03-25T00:16:31.970Z,5.09
2024-03-25T00:17:56.447Z,5.02
2024-03-25T00:19:24.863Z,5.04
2024-03-25T00:20:45.695Z,5.05
2024-03-25T00:22:06.710Z,4.98
2024-03-25T00:23:37.012Z,5.15
2024-03-25T00:24:56.841Z,5.08
2024-03-25T00:26:27.182Z,5.04
2024-03-25T00:28:33.825Z,5.10
2024-03-25T00:29:39.370Z,5.12
2024-03-25T00:31:43.308Z,5.07
2024-03-25T00:33:22.333Z,5.05
2024-03-25T00:34:43.211Z,5.01
2024-03-25T00:36:29.583Z,5.05
2024-03-25T00:37:55.572Z,4.96
2024-03-25T00:39:17.224Z,4.94
2024-03-25T00:40:50.719Z,5.07
2024-03-25T00:42:22.798Z,4.95
2024-03-25T00:43:44.100Z,4.98
2024-03-25T00:45:10.526Z,4.94
2024-03-25T00:46:32.874Z,4.92
2024-03-25T00:47:55.857Z,4.94
2024-03-25T00:49:17.879Z,4.89
2024-03-25T00:50:38.473Z,4.82
2024-03-25T00:51:59.360Z,4.83
2024-03-25T00:53:20.668Z,4.94
2024-03-25T00:54:41.565Z,4.95
2024-03-25T00:56:02.103Z,4.94
2024-03-25T00:57:26.249Z,5.04
2024-03-25T00:58:46.820Z,4.98
2024-03-25T01:00:08.181Z,4.98
2024-03-25T01:01:38.839Z,5.01
2024-03-25T01:02:59.645Z,4.85
2024-03-25T01:04:26.696Z,4.78
2024-03-25T01:05:47.654Z,4.72
2024-03-25T01:07:30.343Z,4.74
2024-03-25T01:08:56.138Z,4.80
2024-03-25T01:10:18.699Z,4.76
2024-03-25T01:11:42.514Z,4.72
2024-03-25T01:13:02.813Z,4.78
2024-03-25T01:14:23.591Z,4.70
2024-03-25T01:15:43.875Z,4.69
2024-03-25T01:17:04.360Z,4.63
2024-03-25T01:18:25.476Z,4.65
2024-03-25T01:19:46.384Z,4.65
2024-03-25T01:21:07.769Z,4.63
2024-03-25T01:22:29.071Z,4.61
2024-03-25T01:23:49.668Z,4.61
2024-03-25T01:25:11.696Z,4.63
2024-03-25T01:26:32.494Z,4.62
2024-03-25T01:27:52.790Z,4.64
2024-03-25T01:29:14.487Z,4.54
2024-03-25T01:30:39.280Z,4.43
2024-03-25T01:32:00.379Z,4.37
2024-03-25T01:33:21.790Z,4.34
2024-03-25T01:34:44.117Z,4.45
2024-03-25T01:36:06.008Z,4.44
2024-03-25T01:37:27.456Z,4.47
2024-03-25T01:38:49.020Z,4.41
2024-03-25T01:40:12.490Z,4.36
2024-03-25T01:41:32.699Z,4.39
2024-03-25T01:42:56.878Z,4.51
2024-03-25T01:44:18.118Z,4.55
2024-03-25T01:45:39.284Z,4.44
2024-03-25T01:47:04.885Z,4.45
2024-03-25T01:48:25.579Z,4.40
2024-03-25T01:49:47.242Z,4.33
2024-03-25T01:51:08.368Z,4.34
2024-03-25T01:52:29.145Z,4.30
2024-03-25T01:53:50.297Z,4.42
2024-03-25T01:55:20.308Z,4.33
2024-03-25T01:56:42.211Z,4.43
2024-03-25T01:58:03.709Z,4.39
2024-03-25T01:59:24.926Z,4.44
2024-03-25T02:00:45.990Z,4.44
2024-03-25T02:02:07.510Z,4.32
2024-03-25T02:03:39.622Z,4.36
2024-03-25T02:05:01.034Z,4.39
2024-03-25T02:06:22.753Z,4.45
2024-03-25T02:08:21.427Z,4.45
2024-03-25T02:09:40.072Z,4.42
2024-03-25T02:11:03.619Z,4.29
2024-03-25T02:12:30.452Z,4.27
2024-03-25T02:13:52.072Z,4.25
2024-03-25T02:15:13.562Z,4.10
2024-03-25T02:16:34.646Z,4.27
2024-03-25T02:17:55.254Z,4.28
2024-03-25T02:19:16.235Z,4.13
2024-03-25T02:20:40.930Z,4.11
2024-03-25T02:22:07.147Z,4.20
2024-03-25T02:23:27.339Z,4.16
2024-03-25T02:27:16.980Z,3.95
2024-03-25T02:28:37.731Z,3.88
2024-03-25T02:30:03.205Z,3.96
2024-03-25T02:31:23.986Z,4.02
2024-03-25T02:32:45.588Z,4.04
2024-03-25T02:34:17.578Z,4.08
2024-03-25T02:35:39.610Z,4.07
2024-03-25T02:37:08.996Z,3.97
2024-03-25T02:38:33.091Z,4.02
2024-03-25T02:40:01.108Z,4.00
2024-03-25T02:41:27.758Z,4.09
2024-03-25T02:42:52.508Z,4.04
2024-03-25T02:44:17.094Z,3.88
2024-03-25T02:45:38.239Z,3.81
2024-03-25T02:46:58.320Z,3.95
2024-03-25T02:48:22.038Z,4.00
2024-03-25T02:49:51.993Z,4.02
2024-03-25T02:51:12.371Z,4.02
2024-03-25T02:52:38.447Z,3.93
2024-03-25T02:53:58.481Z,3.89
2024-03-25T02:55:19.500Z,4.00
2024-03-25T02:56:41.880Z,3.95
2024-03-25T02:58:01.883Z,3.90
2024-03-25T02:59:25.805Z,3.92
2024-03-25T03:00:45.874Z,3.89
2024-03-25T03:02:06.826Z,3.80
2024-03-25T03:03:42.625Z,3.83
2024-03-25T03:05:14.175Z,3.88
2024-03-25T03:06:37.853Z,3.92
2024-03-25T03:07:59.169Z,3.85
2024-03-25T03:09:25.442Z,3.79
2024-03-25T03:10:47.177Z,3.79
2024-03-25T03:12:08.702Z,3.72
2024-03-25T03:13:29.289Z,3.66
2024-03-25T03:14:52.845Z,3.78
2024-03-25T03:16:16.480Z,3.87
2024-03-25T03:17:40.974Z,3.93
2024-03-25T03:19:02.062Z,3.85
2024-03-25T03:20:22.957Z,3.80
2024-03-25T03:21:44.500Z,3.89
2024-03-25T03:23:05.914Z,3.91
2024-03-25T03:24:27.207Z,3.85
2024-03-25T03:25:47.270Z,3.83
2024-03-25T03:27:08.907Z,3.88
2024-03-25T03:28:30.035Z,3.88
2024-03-25T03:29:51.934Z,3.89
2024-03-25T03:31:20.995Z,3.80
2024-03-25T03:32:47.652Z,3.73
2024-03-25T03:34:09.574Z,3.81
2024-03-25T03:35:36.009Z,3.85
2024-03-25T03:36:56.797Z,3.79
2024-03-25T03:38:16.860Z,3.70
2024-03-25T03:39:37.328Z,3.69
2024-03-25T03:41:01.891Z,3.62
2024-03-25T03:42:25.064Z,3.58
2024-03-25T03:43:46.200Z,3.56
2024-03-25T03:45:10.882Z,3.49
2024-03-25T03:46:31.985Z,3.46
2024-03-25T03:47:53.161Z,3.41
2024-03-25T03:49:14.502Z,3.50
2024-03-25T03:50:37.819Z,3.40
2024-03-25T03:52:09.509Z,3.41
2024-03-25T03:53:33.267Z,3.43
2024-03-25T03:54:55.070Z,3.44
2024-03-25T03:56:17.294Z,3.45
2024-03-25T03:57:39.339Z,3.37
2024-03-25T03:59:00.138Z,3.49
2024-03-25T04:00:23.476Z,3.46
2024-03-25T04:01:45.047Z,3.41
2024-03-25T04:03:04.841Z,3.34
2024-03-25T04:04:25.229Z,3.31
2024-03-25T04:05:48.258Z,3.34
2024-03-25T04:07:08.635Z,3.28
2024-03-25T04:08:31.419Z,3.27
2024-03-25T04:09:59.929Z,3.34
2024-03-25T04:11:20.350Z,3.39
2024-03-25T04:12:40.447Z,3.23
2024-03-25T04:14:19.913Z,3.29
2024-03-25T04:17:49.244Z,3.28
2024-03-25T04:19:13.356Z,3.32
2024-03-25T04:20:41.232Z,3.38
2024-03-25T04:22:11.503Z,3.27
2024-03-25T04:23:39.145Z,3.29
2024-03-25T04:24:59.912Z,3.38
2024-03-25T04:26:19.622Z,3.45
2024-03-25T04:27:41.326Z,3.31
2024-03-25T04:29:01.850Z,3.47
2024-03-25T04:30:26.237Z,3.37
2024-03-25T04:31:50.108Z,3.27
2024-03-25T04:33:14.668Z,3.23
2024-03-25T04:36:52.085Z,3.33
2024-03-25T04:38:18.562Z,3.39
2024-03-25T04:39:39.267Z,3.42
2024-03-25T04:41:23.117Z,3.36
2024-03-25T04:42:46.731Z,3.37
2024-03-25T04:44:22.847Z,3.37
2024-03-25T04:45:49.381Z,3.35
2024-03-25T04:47:09.907Z,3.44
2024-03-25T04:48:31.316Z,3.45
2024-03-25T04:49:52.629Z,3.47
2024-03-25T04:51:14.313Z,3.45
2024-03-25T04:52:34.638Z,3.50
2024-03-25T04:53:55.656Z,3.57
2024-03-25T04:55:15.921Z,3.48
2024-03-25T04:56:36.833Z,3.48
2024-03-25T04:57:58.051Z,3.53
2024-03-25T04:59:19.123Z,3.55
2024-03-25T05:00:42.811Z,3.59
2024-03-25T05:02:04.152Z,3.69
2024-03-25T05:03:25.177Z,3.69
2024-03-25T05:04:46.066Z,3.63
2024-03-25T05:06:09.734Z,3.58
2024-03-25T05:07:31.234Z,3.56
2024-03-25T05:08:51.796Z,3.64
2024-03-25T05:10:15.657Z,3.74
2024-03-25T05:11:36.992Z,3.63
2024-03-25T05:13:38.364Z,3.66
2024-03-25T05:14:52.201Z,3.79
2024-03-25T05:16:28.482Z,3.77
2024-03-25T05:17:48.230Z,3.81
2024-03-25T05:19:11.300Z,3.86
2024-03-25T05:20:34.131Z,3.84
2024-03-25T05:21:54.875Z,3.91
2024-03-25T05:23:16.143Z,3.90
2024-03-25T05:25:15.327Z,4.03
2024-03-25T05:26:48.312Z,4.09
2024-03-25T05:28:14.111Z,4.07
2024-03-25T05:29:35.482Z,4.15
2024-03-25T05:31:02.644Z,4.24
2024-03-25T05:32:23.978Z,4.26
2024-03-25T05:34:16.580Z,4.23
2024-03-25T05:35:41.692Z,4.36
2024-03-25T05:37:12.422Z,4.35
2024-03-25T05:38:33.216Z,4.33
2024-03-25T05:39:53.412Z,4.36
2024-03-25T05:41:17.343Z,4.39
2024-03-25T05:42:38.965Z,4.50
2024-03-25T05:43:59.474Z,4.52
2024-03-25T05:45:22.417Z,4.62
2024-03-25T05:46:45.720Z,4.69
2024-03-25T05:48:08.856Z,4.69
2024-03-25T05:49:50.897Z,4.63
2024-03-25T05:52:27.985Z,4.69
2024-03-25T05:53:57.451Z,4.71
2024-03-25T05:55:47.632Z,4.65
2024-03-25T05:57:14.694Z,4.72
2024-03-25T05:59:20.933Z,4.76
2024-03-25T06:00:48.722Z,4.77
2024-03-25T06:05:05.248Z,5.08
2024-03-25T06:06:29.601Z,5.18
2024-03-25T06:09:04.441Z,5.34
2024-03-25T06:10:56.946Z,5.32
2024-03-25T06:12:26.056Z,5.43
2024-03-25T06:13:55.511Z,5.42
2024-03-25T06:15:33.357Z,5.53
2024-03-25T06:19:54.459Z,5.65
2024-03-25T06:22:14.952Z,5.71
2024-03-25T06:24:19.685Z,5.63
2024-03-25T06:25:43.056Z,5.73
2024-03-25T06:27:29.634Z,5.75
2024-03-25T06:29:37.718Z,5.76
2024-03-25T06:31:24.252Z,5.82
2024-03-25T06:36:03.455Z,6.04
2024-03-25T06:39:29.835Z,6.15
2024-03-25T06:41:40.569Z,6.18
2024-03-25T06:43:00.298Z,6.24
2024-03-25T06:44:23.715Z,6.33
2024-03-25T06:45:43.692Z,6.39
2024-03-25T06:47:09.941Z,6.49
2024-03-25T06:48:34.966Z,6.55
2024-03-25T06:50:37.076Z,6.54
2024-03-25T06:52:07.127Z,6.60
2024-03-25T06:54:03.277Z,6.54
2024-03-25T06:55:36.638Z,6.49
2024-03-25T06:56:59.035Z,6.57
2024-03-25T06:58:26.351Z,6.68
2024-03-25T07:00:02.506Z,6.68
2024-03-25T07:01:35.953Z,6.74
2024-03-25T07:04:44.631Z,6.72
2024-03-25T07:06:05.896Z,6.88
2024-03-25T07:07:41.287Z,6.88
2024-03-25T07:09:01.769Z,6.91
2024-03-25T07:10:29.191Z,7.04
2024-03-25T07:12:41.684Z,7.22
2024-03-25T07:14:02.555Z,7.20
2024-03-25T07:16:13.414Z,7.15
2024-03-25T07:17:47.160Z,7.36
2024-03-25T07:19:09.590Z,7.40
2024-03-25T07:20:54.153Z,7.50
2024-03-25T07:22:19.170Z,7.51
2024-03-25T07:23:44.070Z,7.67
2024-03-25T07:25:05.685Z,7.65
2024-03-25T07:26:27.494Z,7.72
2024-03-25T07:27:57.379Z,7.82
2024-03-25T07:29:26.888Z,7.83
2024-03-25T07:30:48.606Z,7.88
2024-03-25T07:32:09.942Z,7.92
2024-03-25T07:33:31.000Z,7.91
2024-03-25T07:34:52.183Z,7.95
2024-03-25T07:36:12.993Z,8.00
2024-03-25T07:37:34.453Z,8.14
2024-03-25T07:38:55.606Z,8.08
2024-03-25T07:42:37.429Z,8.34
2024-03-25T07:44:28.726Z,8.43
2024-03-25T07:45:45.298Z,8.38
2024-03-25T07:47:07.003Z,8.34
2024-03-25T07:48:28.423Z,8.47
2024-03-25T07:49:49.346Z,8.53
2024-03-25T07:51:10.839Z,8.63
2024-03-25T07:52:31.666Z,8.61
2024-03-25T07:53:52.724Z,8.76
2024-03-25T07:55:13.211Z,8.76
2024-03-25T07:56:37.272Z,8.79
2024-03-25T07:57:57.989Z,8.80
2024-03-25T07:59:19.552Z,8.84
2024-03-25T08:00:41.062Z,8.85
2024-03-25T08:02:01.066Z,8.90
2024-03-25T08:03:21.361Z,8.97
2024-03-25T08:04:42.215Z,9.14
2024-03-25T08:06:03.860Z,9.21
2024-03-25T08:07:24.886Z,9.31
2024-03-25T08:08:45.996Z,9.13
2024-03-25T08:10:05.821Z,9.35
2024-03-25T08:11:26.937Z,9.38
2024-03-25T08:12:48.811Z,9.39
2024-03-25T08:14:09.654Z,9.47
2024-03-25T08:15:30.346Z,9.33
2024-03-25T08:16:52.527Z,9.38
2024-03-25T08:18:15.520Z,9.44
2024-03-25T08:19:36.322Z,9.48
2024-03-25T08:20:57.137Z,9.34
2024-03-25T08:22:19.004Z,9.36
2024-03-25T08:23:38.881Z,9.50
2024-03-25T08:25:00.520Z,9.57
2024-03-25T08:26:21.004Z,9.72
2024-03-25T08:27:42.757Z,9.83
2024-03-25T08:29:04.286Z,9.65
2024-03-25T08:30:25.422Z,9.63
2024-03-25T08:31:48.596Z,9.73
2024-03-25T08:33:09.804Z,9.84
2024-03-25T08:34:31.087Z,10.04
2024-03-25T08:35:52.179Z,10.10
2024-03-25T08:37:13.452Z,10.04
2024-03-25T08:38:34.006Z,9.98
2024-03-25T08:39:54.987Z,10.15
2024-03-25T08:41:16.262Z,10.21
2024-03-25T08:42:36.539Z,9.97
2024-03-25T08:43:57.088Z,10.17
2024-03-25T08:45:18.638Z,10.29
2024-03-25T08:46:39.285Z,10.42
2024-03-25T08:48:01.108Z,10.49
2024-03-25T08:49:22.199Z,10.50
2024-03-25T08:50:44.394Z,10.53
2024-03-25T08:52:06.006Z,10.77
2024-03-25T08:53:27.320Z,10.62
2024-03-25T08:54:48.855Z,10.62
2024-03-25T08:56:10.050Z,10.74
2024-03-25T08:57:30.815Z,10.77
2024-03-25T08:58:54.970Z,10.90
2024-03-25T09:00:18.907Z,10.91
2024-03-25T09:01:40.830Z,11.05
2024-03-25T09:03:01.365Z,11.03
2024-03-25T09:04:27.921Z,11.15
2024-03-25T09:05:49.178Z,11.00
2024-03-25T09:07:11.007Z,11.01
2024-03-25T09:08:52.632Z,11.09
2024-03-25T09:10:32.127Z,11.04
2024-03-25T09:11:52.571Z,11.10
2024-03-25T09:13:15.515Z,11.18
2024-03-25T09:14:38.881Z,11.26
2024-03-25T09:15:59.288Z,11.23
2024-03-25T09:17:20.871Z,11.20
2024-03-25T09:18:42.603Z,11.30
2024-03-25T09:20:04.957Z,11.44
2024-03-25T09:21:27.719Z,11.53
2024-03-25T09:22:51.050Z,11.66
2024-03-25T09:24:12.344Z,11.73
2024-03-25T09:25:39.248Z,11.72
2024-03-25T09:27:04.183Z,11.83
2024-03-25T09:28:31.374Z,12.09
2024-03-25T09:29:57.392Z,12.31
2024-03-25T09:31:19.464Z,12.47
2024-03-25T09:32:40.542Z,12.65
2024-03-25T09:34:04.309Z,12.70
2024-03-25T09:35:24.940Z,12.79
2024-03-25T09:36:45.126Z,12.80
2024-03-25T09:38:10.293Z,12.62
2024-03-25T09:39:34.229Z,12.83
2024-03-25T09:40:54.928Z,12.95
2024-03-25T09:42:26.455Z,12.91
2024-03-25T09:43:53.731Z,12.87
2024-03-25T09:45:17.438Z,12.77
2024-03-25T09:46:37.167Z,12.59
2024-03-25T09:47:57.771Z,12.37
2024-03-25T09:49:18.965Z,12.31
2024-03-25T09:50:40.461Z,12.59
2024-03-25T09:52:00.843Z,12.84
2024-03-25T09:53:21.559Z,12.24
2024-03-25T09:54:41.766Z,12.38
2024-03-25T09:56:03.576Z,12.10
2024-03-25T09:57:24.121Z,11.87
2024-03-25T09:58:45.214Z,11.88
2024-03-25T10:00:07.611Z,11.95
2024-03-25T10:01:29.221Z,12.14
2024-03-25T10:02:52.011Z,12.25
2024-03-25T10:04:14.536Z,12.51
2024-03-25T10:05:37.284Z,12.70
2024-03-25T10:07:00.764Z,12.97
2024-03-25T10:08:26.581Z,13.25
2024-03-25T10:09:47.713Z,13.34
2024-03-25T10:11:10.891Z,13.09
2024-03-25T10:12:31.912Z,13.31
2024-03-25T10:13:56.403Z,13.19
2024-03-25T10:15:18.030Z,13.11
2024-03-25T10:16:41.250Z,13.26
2024-03-25T10:18:02.194Z,13.06
2024-03-25T10:19:24.678Z,13.02
2024-03-25T10:20:53.271Z,12.90
2024-03-25T10:22:15.296Z,13.19
2024-03-25T10:23:40.718Z,13.41
2024-03-25T10:25:01.912Z,13.75
2024-03-25T10:26:31.900Z,13.61
2024-03-25T10:27:59.292Z,13.62
2024-03-25T10:29:18.987Z,13.57
2024-03-25T10:30:41.123Z,13.90
2024-03-25T10:32:02.081Z,13.74
2024-03-25T10:33:25.243Z,13.55
2024-03-25T10:34:47.011Z,13.88
2024-03-25T10:36:15.259Z,13.84
2024-03-25T10:37:37.116Z,13.55
2024-03-25T10:39:04.287Z,13.10
2024-03-25T10:40:29.339Z,12.92
2024-03-25T10:41:51.535Z,12.86
2024-03-25T10:43:13.889Z,13.19
2024-03-25T10:44:34.356Z,13.86
2024-03-25T10:45:57.549Z,14.22
2024-03-25T10:47:25.873Z,13.67
2024-03-25T10:49:04.287Z,13.42
2024-03-25T10:50:32.363Z,13.54
2024-03-25T10:51:54.707Z,13.96
2024-03-25T10:53:21.141Z,14.31
2024-03-25T10:54:44.248Z,14.16
2024-03-25T10:56:05.648Z,13.98
2024-03-25T10:57:29.250Z,13.94
2024-03-25T10:58:51.344Z,14.19
2024-03-25T11:00:15.240Z,14.27
2024-03-25T11:01:38.679Z,14.46
2024-03-25T11:03:03.298Z,14.26
2024-03-25T11:04:25.614Z,13.85
2024-03-25T11:05:46.860Z,13.98
2024-03-25T11:07:15.145Z,14.55
2024-03-25T11:08:36.506Z,14.75
2024-03-25T11:10:07.507Z,14.47
2024-03-25T11:11:35.388Z,14.16
2024-03-25T11:12:57.161Z,13.99
2024-03-25T11:14:19.021Z,14.32
2024-03-25T11:15:47.157Z,14.77
2024-03-25T11:17:16.673Z,14.95
2024-03-25T11:18:39.390Z,15.13
2024-03-25T11:20:18.269Z,15.23
2024-03-25T11:21:40.048Z,15.59
2024-03-25T11:23:10.165Z,15.52
2024-03-25T11:24:40.100Z,15.61
2024-03-25T11:26:02.997Z,15.21
2024-03-25T11:27:40.265Z,15.73
2024-03-25T11:29:01.420Z,15.58
2024-03-25T11:30:26.704Z,15.57
2024-03-25T11:31:50.451Z,15.20
2024-03-25T11:33:12.263Z,14.95
2024-03-25T11:34:33.993Z,15.03
2024-03-25T11:35:55.660Z,14.57
2024-03-25T11:37:16.748Z,14.28
2024-03-25T11:38:43.456Z,13.95
2024-03-25T11:40:07.092Z,13.70
2024-03-25T11:41:30.358Z,13.54
2024-03-25T11:42:52.189Z,13.60
2024-03-25T11:44:12.946Z,13.54
2024-03-25T11:45:34.778Z,13.68
2024-03-25T11:46:57.135Z,13.66
2024-03-25T11:48:17.757Z,13.64
2024-03-25T11:49:40.675Z,13.59
2024-03-25T11:51:05.648Z,13.79
2024-03-25T11:52:32.773Z,13.99
2024-03-25T11:53:54.890Z,13.79
2024-03-25T11:55:21.034Z,13.76
2024-03-25T11:56:44.786Z,13.67
2024-03-25T11:58:06.491Z,13.53
2024-03-25T11:59:28.211Z,13.33
2024-03-25T12:00:51.959Z,13.25
2024-03-25T12:02:14.158Z,13.13
2024-03-25T12:03:42.671Z,13.04
2024-03-25T12:05:04.592Z,12.96
2024-03-25T12:06:24.737Z,13.01
2024-03-25T12:07:45.175Z,12.89
2024-03-25T12:09:24.169Z,12.96
2024-03-25T12:11:04.115Z,13.00
2024-03-25T12:12:25.855Z,13.08
2024-03-25T12:13:47.628Z,13.16
2024-03-25T12:15:08.697Z,13.08
2024-03-25T12:16:32.128Z,13.15
2024-03-25T12:17:54.041Z,12.98
2024-03-25T12:19:16.186Z,13.03
2024-03-25T12:20:38.317Z,12.87
2024-03-25T12:22:04.408Z,12.88
2024-03-25T12:23:31.295Z,12.77
2024-03-25T12:24:53.164Z,12.76
2024-03-25T12:26:15.079Z,13.09
2024-03-25T12:27:37.998Z,13.68
2024-03-25T12:29:00.354Z,13.54
2024-03-25T12:30:20.756Z,13.53
2024-03-25T12:31:41.721Z,13.53
2024-03-25T12:33:02.817Z,13.45
2024-03-25T12:34:25.982Z,13.49
2024-03-25T12:35:51.751Z,13.64
2024-03-25T12:37:16.976Z,14.39
2024-03-25T12:38:36.678Z,14.19
2024-03-25T12:40:00.295Z,14.16
2024-03-25T12:41:23.343Z,14.13
2024-03-25T12:42:44.283Z,14.01
2024-03-25T12:44:05.260Z,14.20
2024-03-25T12:45:25.943Z,15.00
2024-03-25T12:46:46.145Z,15.27
2024-03-25T12:48:08.243Z,16.00
2024-03-25T12:49:27.961Z,15.52
2024-03-25T12:50:48.938Z,15.12
2024-03-25T12:52:09.409Z,15.40
2024-03-25T12:53:31.136Z,15.93
2024-03-25T12:54:52.517Z,15.64
2024-03-25T12:56:13.426Z,15.89
2024-03-25T12:57:35.440Z,15.85
2024-03-25T12:58:56.351Z,15.72
2024-03-25T13:00:18.160Z,16.00
2024-03-25T13:01:39.037Z,16.09
2024-03-25T13:03:00.380Z,17.05
2024-03-25T13:04:22.985Z,17.71
2024-03-25T13:05:47.211Z,17.89
2024-03-25T13:07:09.847Z,16.58
2024-03-25T13:08:30.973Z,16.66
2024-03-25T13:09:52.519Z,16.93
2024-03-25T13:11:18.150Z,17.05
2024-03-25T13:12:40.031Z,16.94
2024-03-25T13:14:01.100Z,16.28
2024-03-25T13:15:22.596Z,16.18
2024-03-25T13:16:45.411Z,15.88
2024-03-25T13:18:07.260Z,15.43
2024-03-25T13:19:29.453Z,16.30
2024-03-25T13:20:51.266Z,16.59
2024-03-25T13:22:17.232Z,17.15
2024-03-25T13:23:39.794Z,17.34
2024-03-25T13:25:01.427Z,17.50
2024-03-25T13:26:21.456Z,17.59
2024-03-25T13:27:42.423Z,18.21
2024-03-25T13:29:03.135Z,18.40
2024-03-25T13:30:25.107Z,18.52
2024-03-25T13:31:47.355Z,18.34
2024-03-25T13:33:10.002Z,18.33
2024-03-25T13:34:32.145Z,18.37
2024-03-25T13:35:53.877Z,18.65
2024-03-25T13:37:15.413Z,18.51
2024-03-25T13:38:37.128Z,18.90
2024-03-25T13:39:58.851Z,18.66
2024-03-25T13:41:22.885Z,17.59
2024-03-25T13:42:47.427Z,17.87
2024-03-25T13:44:08.663Z,18.12
2024-03-25T13:45:29.556Z,17.40
2024-03-25T13:46:51.975Z,16.77
2024-03-25T13:48:13.576Z,16.23
2024-03-25T13:49:37.933Z,15.89
2024-03-25T13:51:15.842Z,15.72
2024-03-25T13:52:39.612Z,16.14
2024-03-25T13:54:00.476Z,17.08
2024-03-25T13:55:22.414Z,17.43
2024-03-25T13:56:44.342Z,17.37
2024-03-25T13:58:07.236Z,17.77
2024-03-25T13:59:27.700Z,17.90
2024-03-25T14:00:49.231Z,16.93
2024-03-25T14:02:10.767Z,16.45
2024-03-25T14:03:31.052Z,16.12
2024-03-25T14:04:52.186Z,15.81
2024-03-25T14:06:13.062Z,15.96
2024-03-25T14:07:33.298Z,16.84
2024-03-25T14:08:55.685Z,17.36
2024-03-25T14:10:17.718Z,17.56
2024-03-25T14:11:40.214Z,16.94
2024-03-25T14:13:01.322Z,17.16
2024-03-25T14:14:22.564Z,17.16
2024-03-25T14:15:44.099Z,16.46
2024-03-25T14:17:06.070Z,16.15
2024-03-25T14:18:27.647Z,16.13
2024-03-25T14:19:53.987Z,16.01
2024-03-25T14:21:15.535Z,16.29
2024-03-25T14:22:37.690Z,16.23
2024-03-25T14:23:59.076Z,16.64
2024-03-25T14:25:20.280Z,16.88
2024-03-25T14:26:42.754Z,17.22
2024-03-25T14:28:05.793Z,17.20
2024-03-25T14:29:26.626Z,17.42
2024-03-25T14:30:49.535Z,17.69
2024-03-25T14:32:10.580Z,17.64
2024-03-25T14:33:33.680Z,17.10
2024-03-25T14:34:56.053Z,17.57
2024-03-25T14:36:18.552Z,17.48
2024-03-25T14:37:39.128Z,17.44
2024-03-25T14:38:58.738Z,17.16
2024-03-25T14:40:20.085Z,17.04
2024-03-25T14:41:41.045Z,17.26
2024-03-25T14:43:02.474Z,17.76
2024-03-25T14:44:24.057Z,17.76
2024-03-25T14:45:44.617Z,17.97
2024-03-25T14:47:06.490Z,17.04
2024-03-25T14:48:27.441Z,17.15
2024-03-25T14:49:52.373Z,16.45
2024-03-25T14:51:13.395Z,16.93
2024-03-25T14:52:35.402Z,17.18
2024-03-25T14:53:57.488Z,17.42
2024-03-25T14:55:17.614Z,17.36
2024-03-25T14:56:38.266Z,17.20
2024-03-25T14:57:59.511Z,17.09
2024-03-25T14:59:27.784Z,16.87
2024-03-25T15:00:49.370Z,16.68
2024-03-25T15:02:13.384Z,17.15
2024-03-25T15:03:47.150Z,17.31
2024-03-25T15:05:09.448Z,17.47
2024-03-25T15:06:30.059Z,17.87
2024-03-25T15:07:50.489Z,17.54
2024-03-25T15:09:15.005Z,17.78
2024-03-25T15:10:36.397Z,17.84
2024-03-25T15:11:58.373Z,17.85
2024-03-25T15:13:19.594Z,17.91
2024-03-25T15:14:40.368Z,18.58
2024-03-25T15:16:06.469Z,18.25
2024-03-25T15:17:29.754Z,18.71
2024-03-25T15:18:55.628Z,17.44
2024-03-25T15:20:25.333Z,18.22
2024-03-25T15:21:48.144Z,18.68
2024-03-25T15:23:16.727Z,19.13
2024-03-25T15:24:38.609Z,19.39
2024-03-25T15:26:02.469Z,19.32
2024-03-25T15:27:26.030Z,18.85
2024-03-25T15:28:50.105Z,18.21
2024-03-25T15:30:10.527Z,17.84
2024-03-25T15:31:30.766Z,18.15
2024-03-25T15:32:50.581Z,18.94
2024-03-25T15:34:11.572Z,19.13
2024-03-25T15:35:34.550Z,19.25
2024-03-25T15:36:56.646Z,19.30
2024-03-25T15:40:24.446Z,19.08
2024-03-25T15:41:55.621Z,19.29
2024-03-25T15:43:19.338Z,19.76
2024-03-25T15:44:40.586Z,19.99
2024-03-25T15:46:08.317Z,19.70
2024-03-25T15:47:32.943Z,19.15
2024-03-25T15:48:54.946Z,19.73
2024-03-25T15:50:17.661Z,19.38
2024-03-25T15:51:42.958Z,20.05
2024-03-25T15:53:04.606Z,20.69
2024-03-25T15:54:30.146Z,19.81
2024-03-25T15:55:53.641Z,20.30
2024-03-25T15:57:15.436Z,20.17
2024-03-25T15:59:02.391Z,20.49
2024-03-25T16:00:22.276Z,20.41
2024-03-25T16:01:43.015Z,20.35
2024-03-25T16:03:04.317Z,19.76
2024-03-25T16:04:53.038Z,19.19
2024-03-25T16:06:23.446Z,19.23
2024-03-25T16:08:43.575Z,18.92
2024-03-25T16:10:05.860Z,17.77
2024-03-25T16:11:27.459Z,17.50
2024-03-25T16:12:49.643Z,17.21
2024-03-25T16:14:11.880Z,17.14
2024-03-25T16:15:37.313Z,16.69
2024-03-25T16:16:58.243Z,16.89
2024-03-25T16:18:22.708Z,16.42
2024-03-25T16:19:44.757Z,15.85
2024-03-25T16:21:18.716Z,15.34
2024-03-25T16:22:39.316Z,15.55
2024-03-25T16:24:00.776Z,16.24
2024-03-25T16:25:44.279Z,16.44
2024-03-25T16:27:05.552Z,16.35
2024-03-25T16:28:25.746Z,15.95
2024-03-25T16:29:46.702Z,15.37
2024-03-25T16:31:07.594Z,15.06
2024-03-25T16:32:37.743Z,14.80
2024-03-25T16:33:59.693Z,14.66
2024-03-25T16:35:23.160Z,15.06
2024-03-25T16:36:44.253Z,15.32
2024-03-25T16:38:05.529Z,15.38
2024-03-25T16:39:28.259Z,15.12
2024-03-25T16:40:50.402Z,14.69
2024-03-25T16:42:15.714Z,14.41
2024-03-25T16:43:37.548Z,14.17
2024-03-25T16:45:00.587Z,13.89
2024-03-25T16:46:21.035Z,13.65
2024-03-25T16:47:44.912Z,13.60
2024-03-25T16:49:06.447Z,13.53
2024-03-25T16:50:28.192Z,13.30
2024-03-25T16:52:44.689Z,13.19
2024-03-25T16:54:06.298Z,12.78
2024-03-25T16:55:53.800Z,12.30
2024-03-25T16:57:18.398Z,12.16
2024-03-25T16:58:46.010Z,11.92
2024-03-25T17:00:47.321Z,11.95
2024-03-25T17:02:47.103Z,11.96
2024-03-25T17:04:29.785Z,11.74
2024-03-25T17:06:00.772Z,11.58
2024-03-25T17:07:50.435Z,11.56
2024-03-25T17:09:18.583Z,11.67
2024-03-25T17:12:31.238Z,11.54
2024-03-25T17:13:52.464Z,11.53
2024-03-25T17:15:17.477Z,11.45
2024-03-25T17:16:39.677Z,11.56
2024-03-25T17:18:14.748Z,11.41
2024-03-25T17:20:03.855Z,11.35
2024-03-25T17:21:24.475Z,11.35
2024-03-25T17:22:50.322Z,11.28
2024-03-25T17:24:20.384Z,11.16
2024-03-25T17:25:43.379Z,11.12
2024-03-25T17:27:13.618Z,11.04
2024-03-25T17:28:36.305Z,10.98
2024-03-25T17:29:59.748Z,11.11
2024-03-25T17:31:29.668Z,11.05
2024-03-25T17:32:53.481Z,10.97
2024-03-25T17:34:19.985Z,10.93
2024-03-25T17:35:55.835Z,10.92
2024-03-25T17:37:20.375Z,10.83
2024-03-25T17:39:04.599Z,10.73
2024-03-25T17:40:28.035Z,10.57
2024-03-25T17:41:54.133Z,10.41
2024-03-25T17:43:20.522Z,10.33
2024-03-25T17:45:01.690Z,10.27
2024-03-25T17:46:23.591Z,10.22
2024-03-25T17:47:50.773Z,10.27
2024-03-25T17:49:11.134Z,10.28
2024-03-25T17:50:32.190Z,10.13
2024-03-25T17:51:53.336Z,10.08
2024-03-25T17:53:13.849Z,9.98
2024-03-25T17:54:40.474Z,9.91
2024-03-25T17:56:01.970Z,9.80
2024-03-25T17:57:43.854Z,9.66
2024-03-25T17:59:08.968Z,9.70
2024-03-25T18:00:45.164Z,9.71
2024-03-25T18:02:09.209Z,9.52
2024-03-25T18:03:33.289Z,9.68
2024-03-25T18:05:08.794Z,9.79
2024-03-25T18:06:29.800Z,9.63
2024-03-25T18:08:01.736Z,9.56
2024-03-25T18:09:30.986Z,9.64
2024-03-25T18:11:33.253Z,9.56
2024-03-25T18:12:55.575Z,9.47
2024-03-25T18:14:20.132Z,9.37
2024-03-25T18:15:50.419Z,9.33
2024-03-25T18:17:15.768Z,9.27
2024-03-25T18:18:44.124Z,9.35
2024-03-25T18:20:06.099Z,9.27
2024-03-25T18:21:30.126Z,9.24
2024-03-25T18:22:52.018Z,9.26
2024-03-25T18:24:15.722Z,9.27
2024-03-25T18:25:41.449Z,9.14
2024-03-25T18:27:33.888Z,9.13
2024-03-25T18:28:58.318Z,9.12
2024-03-25T18:30:26.938Z,9.09
2024-03-25T18:31:51.686Z,9.12
2024-03-25T18:33:14.943Z,9.00
2024-03-25T18:34:37.042Z,8.98
2024-03-25T18:36:03.486Z,8.91
2024-03-25T18:37:57.031Z,8.96
2024-03-25T18:39:24.569Z,8.90
2024-03-25T18:41:12.296Z,8.86
2024-03-25T18:42:38.509Z,8.91
2024-03-25T18:44:00.153Z,8.91
2024-03-25T18:45:21.089Z,8.93
2024-03-25T18:46:43.236Z,8.90
2024-03-25T18:48:10.602Z,8.79
2024-03-25T18:49:32.162Z,8.76
2024-03-25T18:51:11.957Z,8.66
2024-03-25T18:52:53.974Z,8.55
2024-03-25T18:54:19.135Z,8.43
2024-03-25T18:56:29.619Z,8.38
2024-03-25T18:57:58.054Z,8.29
2024-03-25T18:59:29.229Z,8.40
2024-03-25T19:00:50.021Z,8.35
2024-03-25T19:02:14.573Z,8.41
2024-03-25T19:03:35.968Z,8.46
2024-03-25T19:04:59.711Z,8.59